地図

経路データ

SID SEASON NUMBER BASIN SUBBASIN NAME ISO_TIME NATURE LAT LON WMO_WIND WMO_PRES WMO_AGENCY TRACK_TYPE DIST2LAND LANDFALL IFLAG USA_AGENCY USA_ATCF_ID USA_LAT USA_LON USA_RECORD USA_STATUS USA_WIND USA_PRES USA_SSHS USA_R34_NE USA_R34_SE USA_R34_SW USA_R34_NW USA_R50_NE USA_R50_SE USA_R50_SW USA_R50_NW USA_R64_NE USA_R64_SE USA_R64_SW USA_R64_NW USA_POCI USA_ROCI USA_RMW USA_EYE TOKYO_LAT TOKYO_LON TOKYO_GRADE TOKYO_WIND TOKYO_PRES TOKYO_R50_DIR TOKYO_R50_LONG TOKYO_R50_SHORT TOKYO_R30_DIR TOKYO_R30_LONG TOKYO_R30_SHORT TOKYO_LAND CMA_LAT CMA_LON CMA_CAT CMA_WIND CMA_PRES HKO_LAT HKO_LON HKO_CAT HKO_WIND HKO_PRES NEWDELHI_LAT NEWDELHI_LON NEWDELHI_GRADE NEWDELHI_WIND NEWDELHI_PRES NEWDELHI_CI NEWDELHI_DP NEWDELHI_POCI REUNION_LAT REUNION_LON REUNION_TYPE REUNION_WIND REUNION_PRES REUNION_TNUM REUNION_CI REUNION_RMW REUNION_R34_NE REUNION_R34_SE REUNION_R34_SW REUNION_R34_NW REUNION_R50_NE REUNION_R50_SE REUNION_R50_SW REUNION_R50_NW REUNION_R64_NE REUNION_R64_SE REUNION_R64_SW REUNION_R64_NW BOM_LAT BOM_LON BOM_TYPE BOM_WIND BOM_PRES BOM_TNUM BOM_CI BOM_RMW BOM_R34_NE BOM_R34_SE BOM_R34_SW BOM_R34_NW BOM_R50_NE BOM_R50_SE BOM_R50_SW BOM_R50_NW BOM_R64_NE BOM_R64_SE BOM_R64_SW BOM_R64_NW BOM_ROCI BOM_POCI BOM_EYE BOM_POS_METHOD BOM_PRES_METHOD NADI_LAT NADI_LON NADI_CAT NADI_WIND NADI_PRES WELLINGTON_LAT WELLINGTON_LON WELLINGTON_WIND WELLINGTON_PRES DS824_LAT DS824_LON DS824_STAGE DS824_WIND DS824_PRES TD9636_LAT TD9636_LON TD9636_STAGE TD9636_WIND TD9636_PRES TD9635_LAT TD9635_LON TD9635_WIND TD9635_PRES TD9635_ROCI NEUMANN_LAT NEUMANN_LON NEUMANN_CLASS NEUMANN_WIND NEUMANN_PRES MLC_LAT MLC_LON MLC_CLASS MLC_WIND MLC_PRES USA_GUST BOM_GUST BOM_GUST_PER REUNION_GUST REUNION_GUST_PER USA_SEAHGT USA_SEARAD_NE USA_SEARAD_SE USA_SEARAD_SW USA_SEARAD_NW STORM_SPEED STORM_DIR
1983019S14176 1983 4 SP MM MARK 1983-01-18 12:00:00 TS -14.2000 176.400 main 359 350 O___________O_ jtwc_sh SH101983 -14.2000 176.400 20 -1 -14.2000 176.400 TC 20 4 207
1983019S14176 1983 4 SP MM MARK 1983-01-18 15:00:00 TS -14.3575 176.318 main 349 348 P___________P_ SH101983 -14.3575 176.318 20 -1 -14.3575 176.318 TC 20 4 213
1983019S14176 1983 4 SP MM MARK 1983-01-18 18:00:00 TS -14.5000 176.200 main 348 348 O___________O_ jtwc_sh SH101983 -14.5000 176.200 20 -1 -14.5000 176.200 TC 20 4 228
1983019S14176 1983 4 SP MM MARK 1983-01-18 21:00:00 TS -14.6150 176.023 main 356 356 P___________P_ SH101983 -14.6150 176.023 20 -1 -14.6150 176.023 TC 20 4 243
1983019S14176 1983 4 SP MM MARK 1983-01-19 00:00:00 TS -14.7000 175.800 main 362 362 O___________O_ jtwc_sh SH101983 -14.7000 175.800 20 -1 -14.7000 175.800 TC 20 5 252
1983019S14176 1983 4 SP MM MARK 1983-01-19 03:00:00 TS -14.7575 175.557 main 364 364 P___________P_ SH101983 -14.7575 175.557 20 -1 -14.7575 175.557 TC 20 5 258
1983019S14176 1983 4 SP MM MARK 1983-01-19 06:00:00 TS -14.8000 175.300 main 382 382 O___________O_ jtwc_sh SH101983 -14.8000 175.300 20 -1 -14.8000 175.300 TC 20 5 258
1983019S14176 1983 4 SP MM MARK 1983-01-19 09:00:00 TS -14.8574 175.065 main 387 387 P___________P_ SH101983 -14.8574 175.065 20 -1 -14.8574 175.065 TC 20 5 258
1983019S14176 1983 4 SP MM MARK 1983-01-19 12:00:00 TS -14.9000 174.800 main 409 409 O___________O_ jtwc_sh SH101983 -14.9000 174.800 20 -1 -14.9000 174.800 TC 20 6 264
1983019S14176 1983 4 SP MM MARK 1983-01-19 15:00:00 TS -14.9150 174.458 main 432 432 P___________P_ SH101983 -14.9150 174.458 20 -1 -14.9150 174.458 TC 20 7 270
1983019S14176 1983 4 SP MM MARK 1983-01-19 18:00:00 TS -14.9000 174.100 main 464 464 O___________O_ jtwc_sh SH101983 -14.9000 174.100 20 -1 -14.9000 174.100 TC 20 7 276
1983019S14176 1983 4 SP MM MARK 1983-01-19 21:00:00 TS -14.8425 173.770 main 496 496 P___________P_ SH101983 -14.8425 173.770 20 -1 -14.8425 173.770 TC 20 5 281
1983019S14176 1983 4 SP MM MARK 1983-01-20 00:00:00 TS -14.8000 173.556 30 997 wellington main 512 512 O_______O___O_ jtwc_sh SH101983 -14.8000 173.500 20 -1 -14.8000 174.000 30 997 -14.8000 173.500 TC 20 3 273
1983019S14176 1983 4 SP MM MARK 1983-01-20 03:00:00 TS -14.8258 173.426 main 529 529 P_______P___P_ SH101983 -14.8424 173.328 20 -1 -14.7595 173.822 30 997 -14.8424 173.328 TC 20 2 258
1983019S14176 1983 4 SP MM MARK 1983-01-20 06:00:00 TS -14.8496 173.321 main 538 531 O_______P___O_ jtwc_sh SH101983 -14.9000 173.200 20 -1 -14.7151 173.645 30 997 -14.9000 173.200 TC 20 2 267
1983019S14176 1983 4 SP MM MARK 1983-01-20 09:00:00 TS -14.8361 173.185 main 547 547 P_______P___P_ SH101983 -14.9225 173.043 22 -1 -14.6632 173.471 30 997 -14.9225 173.043 TC 22 3 280
1983019S14176 1983 4 SP MM MARK 1983-01-20 12:00:00 TS -14.8000 173.033 30 997 wellington main 564 564 O_______O___O_ jtwc_sh SH101983 -14.9000 172.900 25 -1 -14.6000 173.300 30 997 -14.9000 172.900 TC 25 3 294
1983019S14176 1983 4 SP MM MARK 1983-01-20 15:00:00 TS -14.7175 172.907 main 575 565 P_______P___P_ SH101983 -14.8150 172.792 25 -1 -14.5225 173.135 30 997 -14.8150 172.792 TC 25 3 309
1983019S14176 1983 4 SP MM MARK 1983-01-20 18:00:00 TS -14.6100 172.792 main 568 558 O_______P___O_ jtwc_sh SH101983 -14.7000 172.700 25 -1 -14.4300 172.978 30 997 -14.7000 172.700 TC 25 3 316
1983019S14176 1983 4 SP MM MARK 1983-01-20 21:00:00 TS -14.5025 172.692 main 562 552 P_______P___P_ SH101983 -14.5925 172.623 27 -1 -14.3225 172.832 30 997 -14.5925 172.623 TC 27 3 314
1983019S14176 1983 4 SP MM MARK 1983-01-21 00:00:00 TS -14.4000 172.567 30 997 wellington main 557 541 O_______O___O_ jtwc_sh SH101983 -14.5000 172.500 30 -1 -14.2000 172.700 30 997 -14.5000 172.500 TC 30 4 301
1983019S14176 1983 4 SP MM MARK 1983-01-21 03:00:00 TS -14.3214 172.381 main 541 522 P_______P___P_ SH101983 -14.4500 172.280 30 -1 -14.0643 172.582 30 997 -14.4500 172.280 TC 30 4 292
1983019S14176 1983 4 SP MM MARK 1983-01-21 06:00:00 TS -14.2383 172.159 main 527 504 O_______P___O_ jtwc_sh SH101983 -14.4000 172.000 30 -1 -13.9150 172.478 30 997 -14.4000 172.000 TC 30 5 293
1983019S14176 1983 4 SP MM MARK 1983-01-21 09:00:00 TS -14.1294 171.913 main 504 491 P_______P___P_ SH101983 -14.3151 171.677 32 -1 -13.7581 172.385 30 997 -14.3151 171.677 TC 32 5 298
1983019S14176 1983 4 SP MM MARK 1983-01-21 12:00:00 TS -14.0000 171.700 30 997 wellington main 491 482 O_______O___O_ jtwc_sh SH101983 -14.2000 171.400 35 0 -13.6000 172.300 30 997 -14.2000 171.400 TC 35 4 309
1983019S14176 1983 4 SP MM MARK 1983-01-21 15:00:00 TS -13.8536 171.559 main 488 486 P_______P___P_ SH101983 -14.0574 171.240 35 0 -13.4459 172.197 30 997 -14.0574 171.240 TC 35 4 328
1983019S14176 1983 4 SP MM MARK 1983-01-21 18:00:00 TS -13.6975 171.502 main 492 492 O_______P___O_ jtwc_sh SH101983 -13.9000 171.200 35 0 -13.2925 172.105 30 997 -13.9000 171.200 TC 35 3 349
1983019S14176 1983 4 SP MM MARK 1983-01-21 21:00:00 TS -13.5526 171.505 main 499 499 P_______P___P_ SH101983 -13.7574 171.240 35 0 -13.1428 172.035 30 997 -13.7574 171.240 TC 35 3 19
1983019S14176 1983 4 SP MM MARK 1983-01-22 00:00:00 TS -13.4000 171.600 30 997 wellington main 517 517 O_______O___O_ jtwc_sh SH101983 -13.6000 171.400 35 0 -13.0000 172.000 30 997 -13.6000 171.400 TC 35 4 39
1983019S14176 1983 4 SP MM MARK 1983-01-22 03:00:00 TS -13.2249 171.778 main 545 545 P_______P___P_ SH101983 -13.4075 171.670 32 -1 -12.8596 171.994 30 997 -13.4075 171.670 TC 32 5 48
1983019S14176 1983 4 SP MM MARK 1983-01-22 06:00:00 TS -13.0425 172.008 main 574 574 O_______P___O_ jtwc_sh SH101983 -13.2000 172.000 30 -1 -12.7274 172.025 30 997 -13.2000 172.000 TC 30 6 52
1983019S14176 1983 4 SP MM MARK 1983-01-22 09:00:00 TS -12.8838 172.231 main 598 598 P_______P___P_ SH101983 -13.0225 172.300 27 -1 -12.6065 172.094 30 997 -13.0225 172.300 TC 27 6 53
1983019S14176 1983 4 SP MM MARK 1983-01-22 12:00:00 TS -12.7000 172.467 30 997 wellington main 637 637 O_______O___O_ jtwc_sh SH101983 -12.8000 172.600 25 -1 -12.5000 172.200 30 997 -12.8000 172.600 TC 25 6 47
1983019S14176 1983 4 SP MM MARK 1983-01-22 15:00:00 TS -12.4505 172.708 main 666 666 P_______P___P_ SH101983 -12.4725 172.900 25 -1 -12.4065 172.323 30 997 -12.4725 172.900 TC 25 7 43
1983019S14176 1983 4 SP MM MARK 1983-01-22 18:00:00 TS -12.1758 172.961 main 710 710 O_______P___O_ jtwc_sh SH101983 -12.1000 173.200 25 -1 -12.3274 172.482 30 997 -12.1000 173.200 TC 25 7 42
1983019S14176 1983 4 SP MM MARK 1983-01-22 21:00:00 TS -11.9048 173.210 main 745 745 P_______P___P_ SH101983 -11.7274 173.477 27 -1 -12.2596 172.676 30 997 -11.7274 173.477 TC 27 7 46
1983019S14176 1983 4 SP MM MARK 1983-01-23 00:00:00 TS -11.6667 173.500 30 997 wellington main 777 764 O_______O___O_ jtwc_sh SH101983 -11.4000 173.800 30 -1 -12.2000 172.900 30 997 -11.4000 173.800 TC 30 8 56
1983019S14176 1983 4 SP MM MARK 1983-01-23 03:00:00 TS -11.4649 173.879 main 764 746 P_______P___P_ SH101983 -11.1401 174.243 30 -1 -12.1144 173.150 32 995 -11.1401 174.243 TC 30 8 67
1983019S14176 1983 4 SP MM MARK 1983-01-23 06:00:00 TS -11.3467 174.276 main 755 736 O_______P___O_ jtwc_sh SH101983 -11.0000 174.700 30 -1 -12.0401 173.428 35 993 -11.0000 174.700 TC 30 8 80
1983019S14176 1983 4 SP MM MARK 1983-01-23 09:00:00 TS -11.3252 174.650 main 730 709 P_______P___P_ SH101983 -10.9900 175.117 32 -1 -11.9957 173.716 37 991 -10.9900 175.117 TC 32 6 95
1983019S14176 1983 4 SP MM MARK 1983-01-23 12:00:00 TS -11.4000 174.933 40 990 wellington main 709 688 O_______O___O_ jtwc_sh SH101983 -11.1000 175.400 35 0 -12.0000 174.000 40 990 -11.1000 175.400 TC 35 5 115
1983019S14176 1983 4 SP MM MARK 1983-01-23 15:00:00 TS -11.5292 175.089 main 688 669 P_______P___P_ SH101983 -11.2624 175.475 37 0 -12.0626 174.318 42 988 -11.2624 175.475 TC 37 4 156
1983019S14176 1983 4 SP MM MARK 1983-01-23 18:00:00 TS -11.7462 175.091 main 669 641 O_______P_O_O_ jtwc_sh SH101983 -11.5000 175.400 40 0 -12.1752 174.619 45 987 -12.0000 174.500 1 -11.5000 175.400 TC 40 5 186
1983019S14176 1983 4 SP MM MARK 1983-01-23 21:00:00 TS -11.9916 175.045 main 647 620 P_______P_P_P_ SH101983 -11.7700 175.273 42 0 -12.3251 174.861 47 986 -12.2111 174.502 1 -11.7700 175.273 TC 42 5 195
1983019S14176 1983 4 SP MM MARK 1983-01-24 00:00:00 TS -12.2667 174.953 50 985 wellington main 620 609 O_______O_O_O_ jtwc_sh SH101983 -12.1000 175.100 45 0 -12.5000 175.000 50 985 -12.4000 174.500 1 -12.1000 175.100 TC 45 6 199
1983019S14176 1983 4 SP MM MARK 1983-01-24 03:00:00 TS -12.5519 174.846 main 607 590 P_______P_P_P_ SH101983 -12.4925 174.950 47 0 -12.6702 174.991 52 982 -12.5526 174.492 1 -12.4925 174.950 TC 47 6 200
1983019S14176 1983 4 SP MM MARK 1983-01-24 06:00:00 TS -12.8372 174.738 main 598 581 O_______P_P_O_ jtwc_sh SH101983 -12.9000 174.800 50 0 -12.8624 174.878 55 980 -12.6864 174.474 1 -12.9000 174.800 TC 50 6 202
1983019S14176 1983 4 SP MM MARK 1983-01-24 09:00:00 TS -13.1188 174.611 main 581 560 P_______P_P_P_ SH101983 -13.2875 174.650 52 0 -13.0734 174.700 57 977 -12.8270 174.444 1 -13.2875 174.650 TC 52 6 206
1983019S14176 1983 4 SP MM MARK 1983-01-24 12:00:00 TS -13.3750 174.475 60 975 wellington main 560 548 O_______O_O_O_ jtwc_sh SH101983 -13.6000 174.500 55 0 -13.3000 174.500 60 975 -13.0000 174.400 1 -13.6000 174.500 TC 55 5 209
1983019S14176 1983 4 SP MM MARK 1983-01-24 15:00:00 TS -13.5857 174.349 main 555 544 P_______P_P_P_ SH101983 -13.7800 174.350 57 0 -13.5397 174.335 61 973 -13.2431 174.360 1 -13.7800 174.350 TC 57 5 212
1983019S14176 1983 4 SP MM MARK 1983-01-24 18:00:00 TS -13.7781 174.215 main 544 534 O_______P_P_O_ jtwc_sh SH101983 -13.9000 174.200 60 0 -13.7925 174.158 62 972 -13.5199 174.302 1 -13.9000 174.200 TC 60 5 215
1983019S14176 1983 4 SP MM MARK 1983-01-24 21:00:00 TS -13.9790 174.062 main 534 533 P_______P_P_P_ SH101983 -14.0275 174.028 60 0 -14.0491 173.976 63 971 -13.8118 174.219 1 -14.0275 174.028 TC 60 5 214
1983019S14176 1983 4 SP MM MARK 1983-01-25 00:00:00 TS -14.2000 173.925 65 970 wellington main 533 517 O_______O_O_O_ jtwc_sh SH101983 -14.2000 173.900 60 0 -14.3000 173.800 65 970 -14.1000 174.100 2 -14.2000 173.900 TC 60 5 205
1983019S14176 1983 4 SP MM MARK 1983-01-25 03:00:00 TS -14.4659 173.830 main 518 503 P_______P_P_P_ SH101983 -14.4850 173.877 65 1 -14.5362 173.639 66 968 -14.3573 173.928 2 -14.4850 173.877 TC 65 6 197
1983019S14176 1983 4 SP MM MARK 1983-01-25 06:00:00 TS -14.7431 173.752 main 503 490 O_______P_P_O_ jtwc_sh SH101983 -14.8000 173.900 70 1 -14.7650 173.485 67 967 -14.6076 173.723 2 -14.8000 173.900 TC 70 6 196
1983019S14176 1983 4 SP MM MARK 1983-01-25 09:00:00 TS -14.9926 173.680 main 490 483 P_______P_P_P_ SH101983 -15.0650 173.937 72 1 -14.9862 173.339 68 966 -14.8542 173.506 2 -15.0650 173.937 TC 72 5 200
1983019S14176 1983 4 SP MM MARK 1983-01-25 12:00:00 TS -15.2250 173.575 70 965 wellington main 486 483 O_______O_O_O_ jtwc_sh SH101983 -15.3000 173.900 75 1 -15.2000 173.200 70 965 -15.1000 173.300 4 -15.3000 173.900 TC 75 5 212
1983019S14176 1983 4 SP MM MARK 1983-01-25 15:00:00 TS -15.4359 173.390 main 492 486 P_______P_P_P_ SH101983 -15.5075 173.695 75 1 -15.3909 173.064 72 962 -15.3378 173.107 4 -15.5075 173.695 TC 75 6 224
1983019S14176 1983 4 SP MM MARK 1983-01-25 18:00:00 TS -15.6387 173.167 main 500 495 O_______P_P_O_ jtwc_sh SH101983 -15.7000 173.400 75 1 -15.5775 172.935 75 960 -15.5775 172.933 4 -15.7000 173.400 TC 75 6 226
1983019S14176 1983 4 SP MM MARK 1983-01-25 21:00:00 TS -15.8472 172.940 main 519 513 P_______P_P_P_ SH101983 -15.8926 173.078 75 1 -15.7753 172.814 77 957 -15.8285 172.792 4 -15.8926 173.078 TC 75 6 223
1983019S14176 1983 4 SP MM MARK 1983-01-26 00:00:00 TS -16.0750 172.750 80 955 wellington main 513 512 O_______O_O_O_ jtwc_sh SH101983 -16.1000 172.800 75 1 -16.0000 172.700 80 955 -16.1000 172.700 4 -16.1000 172.800 TC 75 6 210
1983019S14176 1983 4 SP MM MARK 1983-01-26 03:00:00 TS -16.3392 172.640 main 512 511 P_______P_P_P_ SH101983 -16.3349 172.655 77 1 -16.2794 172.561 76 958 -16.4074 172.690 4 -16.3349 172.655 TC 80 6 196
1983019S14176 1983 4 SP MM MARK 1983-01-26 06:00:00 TS -16.6300 172.590 main 511 503 O_______P_P_O_ jtwc_sh SH101983 -16.6000 172.600 80 1 -16.5850 172.433 72 962 -16.7349 172.727 4 -16.6000 172.600 TC 85 963 6 187
1983019S14176 1983 4 SP MM MARK 1983-01-26 09:00:00 TS -16.9420 172.560 main 503 495 P_______P_P_P_ SH101983 -16.9000 172.563 80 1 -16.8981 172.339 68 966 -17.0700 172.775 4 -16.9000 172.563 TC 82 6 182
1983019S14176 1983 4 SP MM MARK 1983-01-26 12:00:00 TS -17.2500 172.575 65 970 wellington main 495 490 O_______O_O_O_ jtwc_sh SH101983 -17.2000 172.600 80 1 -17.2000 172.300 65 970 -17.4000 172.800 4 -17.2000 172.600 TC 80 6 174
1983019S14176 1983 4 SP MM MARK 1983-01-26 15:00:00 TS -17.5240 172.626 main 490 476 P_______P_P_P_ SH101983 -17.4500 172.727 77 1 -17.4765 172.330 63 971 -17.7194 172.718 4 -17.4500 172.727 TC 77 6 167
1983019S14176 1983 4 SP MM MARK 1983-01-26 18:00:00 TS -17.7919 172.708 main 476 465 O_______P_P_O_ jtwc_sh SH101983 -17.7000 172.900 75 1 -17.7374 172.417 62 972 -18.0300 172.613 4 -17.7000 172.900 TC 75 6 163
1983019S14176 1983 4 SP MM MARK 1983-01-26 21:00:00 TS -18.0763 172.797 main 465 455 P_______P_P_P_ SH101983 -18.0000 173.057 70 1 -17.9796 172.546 61 973 -18.3256 172.527 4 -18.0000 173.057 TC 70 6 162
1983019S14176 1983 4 SP MM MARK 1983-01-27 00:00:00 TS -18.3500 172.900 60 975 wellington main 455 447 O_______O_O_O_ jtwc_sh SH101983 -18.3000 173.200 65 1 -18.2000 172.700 60 975 -18.6000 172.500 4 -18.3000 173.200 TC 65 6 160
1983019S14176 1983 4 SP MM MARK 1983-01-27 03:00:00 TS -18.6013 173.001 main 448 439 P_______P_P_P_ SH101983 -18.5650 173.300 62 0 -18.4005 172.837 57 977 -18.8749 172.565 4 -18.5650 173.300 TC 62 5 156
1983019S14176 1983 4 SP MM MARK 1983-01-27 06:00:00 TS -18.8262 173.123 main 441 426 O_______P_P_O_ jtwc_sh SH101983 -18.8000 173.400 60 0 -18.5798 172.998 55 980 -19.1248 172.694 4 -18.8000 173.400 TC 60 5 148
1983019S14176 1983 4 SP MM MARK 1983-01-27 09:00:00 TS -19.0241 173.283 main 426 412 P_______P_P_P_ SH101983 -19.0075 173.535 57 0 -18.7442 173.184 52 982 -19.3374 172.877 4 -19.0075 173.535 TC 57 5 138
1983019S14176 1983 4 SP MM MARK 1983-01-27 12:00:00 TS -19.2000 173.475 50 985 wellington main 412 396 O_______O_O_O_ jtwc_sh SH101983 -19.2000 173.700 55 0 -18.9000 173.400 50 985 -19.5000 173.100 4 -19.2000 173.700 TC 55 5 132
1983019S14176 1983 4 SP MM MARK 1983-01-27 15:00:00 TS -19.3771 173.703 main 400 385 P_______P_P_P_ SH101983 -19.4150 173.892 52 0 -19.0654 173.650 47 986 -19.6129 173.376 4 -19.4150 173.892 TC 52 6 126
1983019S14176 1983 4 SP MM MARK 1983-01-27 18:00:00 TS -19.5245 173.952 main 376 362 O_______P_P_O_ jtwc_sh SH101983 -19.6000 174.100 50 0 -19.2226 173.927 45 987 -19.6756 173.680 4 -19.6000 174.100 TC 50 5 120
1983019S14176 1983 4 SP MM MARK 1983-01-27 21:00:00 TS -19.6435 174.200 main 362 350 P_______P_P_P_ SH101983 -19.7525 174.307 50 0 -19.3685 174.216 42 988 -19.7004 173.969 4 -19.7525 174.307 TC 50 5 111
1983019S14176 1983 4 SP MM MARK 1983-01-28 00:00:00 TS -19.7000 174.425 40 990 wellington main 350 333 O_______O_O_O_ jtwc_sh SH101983 -19.8000 174.500 50 0 -19.5000 174.500 40 990 -19.7000 174.200 2 -19.8000 174.500 TC 50 4 96
1983019S14176 1983 4 SP MM MARK 1983-01-28 03:00:00 TS -19.6867 174.614 main 333 309 P_______P_P_P_ SH101983 -19.6875 174.665 47 0 -19.6673 174.814 38 991 -19.7044 174.311 2 -19.6875 174.665 TC 47 3 77
1983019S14176 1983 4 SP MM MARK 1983-01-28 06:00:00 TS -19.6250 174.768 main 309 301 O_______P_P_O_ jtwc_sh SH101983 -19.5000 174.800 45 0 -19.8127 175.112 37 992 -19.6872 174.360 2 -19.5000 174.800 TC 45 3 64
1983019S14176 1983 4 SP MM MARK 1983-01-28 09:00:00 TS -19.5595 174.887 main 301 286 P_______P_P_P_ SH101983 -19.3425 174.907 42 0 -19.9017 175.355 36 993 -19.6514 174.379 2 -19.3425 174.907 TC 42 2 52
1983019S14176 1983 4 SP MM MARK 1983-01-28 12:00:00 TS -19.4750 174.975 35 995 wellington main 286 279 O_______O_O_O_ jtwc_sh SH101983 -19.2000 175.000 40 0 -19.9000 175.500 35 995 -19.6000 174.400 1 -19.2000 175.000 TC 40 2 39
1983019S14176 1983 4 SP MM MARK 1983-01-28 15:00:00 TS -19.3833 175.039 main 279 264 P_______P_P_P_ SH101983 -19.0925 175.107 40 0 -19.7765 175.484 33 995 -19.5718 174.455 1 -19.0925 175.107 TC 40 2 25
1983019S14176 1983 4 SP MM MARK 1983-01-28 18:00:00 TS -19.2718 175.074 main 264 253 O_______P_P_O_ jtwc_sh SH101983 -19.0000 175.200 40 0 -19.5625 175.375 32 996 -19.5249 174.520 1 -19.0000 175.200 TC 40 3 10
1983019S14176 1983 4 SP MM MARK 1983-01-28 21:00:00 TS -19.1369 175.082 main 253 248 P_______P_P_P_ SH101983 -18.9075 175.250 40 0 -19.2922 175.228 31 996 -19.4406 174.599 1 -18.9075 175.250 TC 40 3 0
1983019S14176 1983 4 SP MM MARK 1983-01-29 00:00:00 TS -18.9750 175.100 30 997 wellington main 248 229 O_______O_O_O_ jtwc_sh SH101983 -18.8000 175.300 40 0 -19.0000 175.100 30 997 -19.3000 174.700 1 -18.8000 175.300 TC 40 4 10
1983019S14176 1983 4 SP MM MARK 1983-01-29 03:00:00 TS -18.7781 175.156 main 229 221 P_______P_P_P_ SH101983 -18.6575 175.393 37 0 -18.7269 175.014 30 997 -19.0703 174.825 1 -18.6575 175.393 TC 37 4 16
1983019S14176 1983 4 SP MM MARK 1983-01-29 06:00:00 TS -18.5574 175.234 main 221 205 O_______P_P_O_ jtwc_sh SH101983 -18.5000 175.500 35 0 -18.4420 174.965 30 997 -18.7875 174.970 1 -18.5000 175.500 TC 35 5 20
1983019S14176 1983 4 SP MM MARK 1983-01-29 09:00:00 TS -18.3405 175.325 main 203 190 P_______P_P_P_ SH101983 -18.3575 175.592 35 0 -18.1611 174.983 30 997 -18.4859 175.131 1 -18.3575 175.592 TC 35 5 25
1983019S14176 1983 4 SP MM MARK 1983-01-29 12:00:00 TS -18.1250 175.450 30 997 wellington main 180 169 O_______O_O_O_ jtwc_sh SH101983 -18.2000 175.700 35 0 -17.9000 175.100 30 997 -18.2000 175.300 1 -18.2000 175.700 TC 35 5 32
1983019S14176 1983 4 SP MM MARK 1983-01-29 15:00:00 TS -17.9115 175.609 main 169 149 P_______P_P_P_ SH101983 -18.0150 175.835 35 0 -17.6503 175.346 30 997 -17.9658 175.419 1 -18.0150 175.835 TC 35 6 39
1983019S14176 1983 4 SP MM MARK 1983-01-29 18:00:00 TS -17.6949 175.810 main 151 138 O_______P_P_O_ jtwc_sh SH101983 -17.8000 176.000 35 0 -17.4254 175.688 30 997 -17.7542 175.552 1 -17.8000 176.000 TC 35 6 43
1983019S14176 1983 4 SP MM MARK 1983-01-29 21:00:00 TS -17.4720 176.040 main 138 121 P_______P_P_P_ SH101983 -17.5424 176.170 35 0 -17.2377 176.087 30 997 -17.5656 175.734 1 -17.5424 176.170 TC 35 6 49
1983019S14176 1983 4 SP MM MARK 1983-01-30 00:00:00 TS -17.2750 176.325 30 997 wellington main 121 95 O_______O_O_O_ jtwc_sh SH101983 -17.3000 176.400 35 0 -17.1000 176.500 30 997 -17.4000 176.000 1 -17.3000 176.400 TC 35 7 60
1983019S14176 1983 4 SP MM MARK 1983-01-30 03:00:00 TS -17.1325 176.653 main 93 77 P_______P_P_P_ SH101983 -17.1348 176.697 35 0 -17.0039 176.843 30 997 -17.2563 176.373 1 -17.1348 176.697 TC 35 8 70
1983019S14176 1983 4 SP MM MARK 1983-01-30 06:00:00 TS -17.0173 177.068 main 70 56 O_______P_P_O_ jtwc_sh SH101983 -17.0000 177.100 35 0 -16.9592 177.197 30 997 -17.1293 176.833 1 -17.0000 177.100 TC 35 9 77
1983019S14176 1983 4 SP MM MARK 1983-01-30 09:00:00 TS -16.9287 177.549 main 67 54 P_______P_P_P_ SH101983 -16.8554 177.618 32 -1 -16.9600 177.578 30 997 -17.0125 177.352 1 -16.8554 177.618 TC 32 9 83
1983019S14176 1983 4 SP MM MARK 1983-01-30 12:00:00 TS -16.9000 178.043 30 997 wellington main 54 15 O_______O_O_O_ jtwc_sh SH101983 -16.7000 178.200 30 -1 -17.0000 178.000 30 997 -16.9000 177.900 1 -16.7000 178.200 TC 30 9 99
1983019S14176 1983 4 SP MM MARK 1983-01-30 15:00:00 NR -17.0687 178.514 main 24 11 ________P_____ SH101983 -1 -17.0687 178.514 30 997 1 TC 10 106
1983019S14176 1983 4 SP MM MARK 1983-01-30 18:00:00 NR -17.1709 179.064 main 33 33 ________P_____ -1 -17.1709 179.064 30 997 1 11 102
1983019S14176 1983 4 SP MM MARK 1983-01-30 21:00:00 NR -17.2875 179.608 main 55 55 ________P_____ -1 -17.2875 179.608 30 997 1 10 103
1983019S14176 1983 4 SP MM MARK 1983-01-31 00:00:00 NR -17.4000 180.100 30 997 wellington main 70 70 ________O_____ -1 -17.4000 -179.900 30 997 8 103
1983019S14176 1983 4 SP MM MARK 1983-01-31 03:00:00 NR -17.4732 180.471 main 101 101 ________P_____ -1 -17.4732 -179.529 30 997 7 102
1983019S14176 1983 4 SP MM MARK 1983-01-31 06:00:00 NR -17.5413 180.788 main 123 123 ________P_____ -1 -17.5413 -179.212 30 997 6 103
1983019S14176 1983 4 SP MM MARK 1983-01-31 09:00:00 NR -17.6139 181.086 main 155 155 ________P_____ -1 -17.6139 -178.914 30 997 6 105
1983019S14176 1983 4 SP MM MARK 1983-01-31 12:00:00 NR -17.7000 181.400 30 997 wellington main 188 188 ________O_____ -1 -17.7000 -178.600 30 997 7 107
1983019S14176 1983 4 SP MM MARK 1983-01-31 15:00:00 NR -17.8061 181.756 main 230 230 ________P_____ -1 -17.8061 -178.244 30 997 8 108
1983019S14176 1983 4 SP MM MARK 1983-01-31 18:00:00 NR -17.9288 182.149 main 263 263 ________P_____ -1 -17.9288 -177.851 30 997 8 108
1983019S14176 1983 4 SP MM MARK 1983-01-31 21:00:00 NR -18.0620 182.568 main 321 321 ________P_____ -1 -18.0620 -177.432 30 997 9 109
1983019S14176 1983 4 SP MM MARK 1983-02-01 00:00:00 NR -18.2000 183.000 30 997 wellington main 364 ________O_____ -1 -18.2000 -177.000 30 997 9 109

デジタル台風データ・検索

IBTrACS Databaseについて

本データベースは、米国NOAAが公開する1842年以降の世界の熱帯低気圧のベストトラックデータアーカイブInternational Best Track Archive for Climate Stewardship (IBTrACS)を、ウェブで閲覧しやすい形式に変換したものです。

最終更新日:2021-10-21